createdAt,value
2022-09-11T00:00:39.687Z,100805.47
2022-09-11T00:03:07.689Z,100843.41
2022-09-11T00:05:39.356Z,100849.28
2022-09-11T00:08:07.868Z,100849.44
2022-09-11T00:10:40.085Z,100832.50
2022-09-11T00:13:11.823Z,100851.09
2022-09-11T00:15:39.883Z,100849.50
2022-09-11T00:18:07.694Z,100848.97
2022-09-11T00:20:34.861Z,100851.38
2022-09-11T00:23:05.032Z,100853.13
2022-09-11T00:25:35.905Z,100855.59
2022-09-11T00:28:02.945Z,100858.72
2022-09-11T00:30:29.815Z,100830.91
2022-09-11T00:32:56.490Z,100835.50
2022-09-11T00:35:23.725Z,100852.38
2022-09-11T00:37:50.337Z,100857.84
2022-09-11T00:40:17.996Z,100860.22
2022-09-11T00:42:44.777Z,100859.38
2022-09-11T00:45:21.101Z,100862.53
2022-09-11T00:47:49.062Z,100867.88
2022-09-11T00:50:19.933Z,100872.16
2022-09-11T00:52:58.818Z,100870.97
2022-09-11T00:55:27.850Z,100872.63
2022-09-11T00:57:59.519Z,100867.81
2022-09-11T01:00:26.040Z,100844.81
2022-09-11T01:02:53.526Z,100869.44
2022-09-11T01:05:22.412Z,100866.50
2022-09-11T01:07:54.153Z,100870.06
2022-09-11T01:10:27.107Z,100865.38
2022-09-11T01:13:06.484Z,100853.50
2022-09-11T01:15:38.974Z,100867.22
2022-09-11T01:18:21.769Z,100876.78
2022-09-11T01:21:26.012Z,100876.44
2022-09-11T01:24:01.218Z,100855.31
2022-09-11T01:26:52.205Z,100883.09
2022-09-11T01:29:22.053Z,100893.25
2022-09-11T01:32:05.657Z,100860.97
2022-09-11T01:34:52.723Z,100854.41
2022-09-11T01:37:31.292Z,100851.88
2022-09-11T01:40:01.694Z,100887.06
2022-09-11T01:42:31.554Z,100880.03
2022-09-11T01:44:58.073Z,100903.75
2022-09-11T01:47:26.086Z,100891.50
2022-09-11T01:50:09.390Z,100912.41
2022-09-11T01:52:42.193Z,100910.47
2022-09-11T01:55:21.540Z,100888.47
2022-09-11T01:57:51.041Z,100917.53
2022-09-11T02:00:17.745Z,100917.91
2022-09-11T02:02:59.049Z,100900.25
2022-09-11T02:05:30.283Z,100922.66
2022-09-11T02:08:02.326Z,100911.41
2022-09-11T02:10:40.829Z,100925.19
2022-09-11T02:13:14.598Z,100882.47
2022-09-11T02:15:48.928Z,100926.81
2022-09-11T02:18:37.664Z,100928.56
2022-09-11T02:21:04.346Z,100923.03
2022-09-11T02:23:30.815Z,100908.50
2022-09-11T02:25:57.285Z,100922.59
2022-09-11T02:28:23.943Z,100936.19
2022-09-11T02:30:50.418Z,100931.31
2022-09-11T02:33:27.889Z,100906.13
2022-09-11T02:35:58.915Z,100897.41
2022-09-11T02:38:30.146Z,100942.25
2022-09-11T02:41:18.149Z,100935.75
2022-09-11T02:44:09.580Z,100931.63
2022-09-11T02:47:06.134Z,100935.94
2022-09-11T02:49:51.484Z,100944.88
2022-09-11T02:52:36.812Z,100942.19
2022-09-11T02:55:40.492Z,100939.16
2022-09-11T02:58:13.452Z,100950.25
2022-09-11T03:00:40.325Z,100952.63
2022-09-11T03:03:07.458Z,100924.72
2022-09-11T03:05:35.440Z,100946.09
2022-09-11T03:08:04.329Z,100934.59
2022-09-11T03:10:30.831Z,100954.06
2022-09-11T03:12:59.547Z,100959.91
2022-09-11T03:15:26.714Z,100959.88
2022-09-11T03:17:53.198Z,100964.00
2022-09-11T03:20:20.788Z,100957.59
2022-09-11T03:22:47.494Z,100951.38
2022-09-11T03:25:15.027Z,100958.03
2022-09-11T03:27:42.157Z,100963.03
2022-09-11T03:30:09.814Z,100867.16
2022-09-11T03:32:36.254Z,100954.38
2022-09-11T03:35:02.748Z,100959.84
2022-09-11T03:37:29.332Z,100965.00
2022-09-11T03:39:55.870Z,100972.44
2022-09-11T03:42:22.392Z,100972.56
2022-09-11T03:44:48.987Z,100975.19
2022-09-11T03:47:15.520Z,100953.28
2022-09-11T03:49:41.990Z,100971.06
2022-09-11T03:52:08.683Z,100970.13
2022-09-11T03:54:35.495Z,100963.16
2022-09-11T03:57:02.219Z,100968.34
2022-09-11T03:59:29.135Z,100977.91
2022-09-11T04:01:55.643Z,100978.72
2022-09-11T04:04:22.302Z,100965.38
2022-09-11T04:06:48.955Z,100979.31
2022-09-11T04:09:15.701Z,100959.31
2022-09-11T04:11:43.099Z,100984.97
2022-09-11T04:14:09.789Z,100984.88
2022-09-11T04:16:36.476Z,100983.03
2022-09-11T04:19:03.627Z,100988.59
2022-09-11T04:21:31.212Z,100992.00
2022-09-11T04:24:00.419Z,100974.22
2022-09-11T04:26:32.114Z,100990.75
2022-09-11T04:29:01.820Z,100991.72
2022-09-11T04:31:28.408Z,100997.09
2022-09-11T04:33:57.748Z,101001.56
2022-09-11T04:36:26.882Z,100998.31
2022-09-11T04:38:58.267Z,100982.03
2022-09-11T04:41:25.411Z,101011.78
2022-09-11T04:43:57.000Z,101019.69
2022-09-11T04:46:25.780Z,101018.13
2022-09-11T04:48:55.425Z,101017.84
2022-09-11T04:51:24.614Z,101017.00
2022-09-11T04:53:52.176Z,101019.09
2022-09-11T04:56:20.712Z,101025.75
2022-09-11T04:58:55.870Z,101022.91
2022-09-11T05:01:23.759Z,101023.28
2022-09-11T05:03:50.310Z,101017.69
2022-09-11T05:06:16.775Z,101010.13
2022-09-11T05:08:47.159Z,100986.38
2022-09-11T05:11:15.764Z,100993.91
2022-09-11T05:13:42.781Z,101021.31
2022-09-11T05:16:17.341Z,101023.50
2022-09-11T05:18:51.985Z,100989.50
2022-09-11T05:21:19.111Z,101025.84
2022-09-11T05:23:50.448Z,101011.34
2022-09-11T05:26:19.495Z,101026.19
2022-09-11T05:28:45.991Z,101034.03
2022-09-11T05:31:17.625Z,101039.69
2022-09-11T05:33:47.361Z,101010.91
2022-09-11T05:36:15.546Z,101041.69
2022-09-11T05:38:42.809Z,101009.38
2022-09-11T05:41:11.623Z,101030.75
2022-09-11T05:43:39.039Z,101051.69
2022-09-11T05:46:07.037Z,101057.88
2022-09-11T05:48:36.656Z,101041.28
2022-09-11T05:51:07.382Z,101061.50
2022-09-11T05:53:34.253Z,101056.50
2022-09-11T05:56:13.980Z,101061.94
2022-09-11T05:58:40.872Z,101036.44
2022-09-11T06:01:09.996Z,101061.84
2022-09-11T06:03:37.264Z,101070.44
2022-09-11T06:06:06.643Z,101080.94
2022-09-11T06:08:34.549Z,101085.00
2022-09-11T06:11:02.699Z,101084.84
2022-09-11T06:13:30.147Z,101092.53
2022-09-11T06:15:56.665Z,101089.53
2022-09-11T06:18:23.139Z,101095.41
2022-09-11T06:21:00.966Z,101101.88
2022-09-11T06:23:27.565Z,101100.72
2022-09-11T06:25:54.412Z,101095.31
2022-09-11T06:28:24.085Z,101067.41
2022-09-11T06:30:51.038Z,101082.56
2022-09-11T06:33:20.526Z,101059.84
2022-09-11T06:35:58.167Z,101076.28
2022-09-11T06:38:25.881Z,101106.78
2022-09-11T06:40:52.905Z,101093.00
2022-09-11T06:43:19.686Z,101070.00
2022-09-11T06:45:48.234Z,101080.81
2022-09-11T06:48:19.072Z,101114.22
2022-09-11T06:50:45.829Z,101115.06
2022-09-11T06:53:13.116Z,101120.41
2022-09-11T06:55:40.518Z,101108.50
2022-09-11T06:58:08.452Z,101099.66
2022-09-11T07:00:36.118Z,101130.41
2022-09-11T07:03:04.054Z,101129.16
2022-09-11T07:05:31.004Z,101104.41
2022-09-11T07:07:57.879Z,101130.59
2022-09-11T07:10:25.029Z,101128.09
2022-09-11T07:12:55.747Z,101120.19
2022-09-11T07:15:22.522Z,101136.25
2022-09-11T07:17:49.126Z,101130.88
2022-09-11T07:20:17.153Z,101135.44
2022-09-11T07:22:45.484Z,101109.41
2022-09-11T07:25:12.369Z,101129.06
2022-09-11T07:27:38.863Z,101142.09
2022-09-11T07:30:05.963Z,101135.56
2022-09-11T07:32:32.531Z,101101.91
2022-09-11T07:35:01.665Z,101145.19
2022-09-11T07:37:28.161Z,101155.19
2022-09-11T07:39:54.633Z,101140.09
2022-09-11T07:42:21.142Z,101146.69
2022-09-11T07:44:47.728Z,101150.09
2022-09-11T07:47:14.178Z,101149.06
2022-09-11T07:49:40.661Z,101150.00
2022-09-11T07:52:07.149Z,101153.41
2022-09-11T07:54:33.705Z,101151.47
2022-09-11T07:57:00.415Z,101120.84
2022-09-11T07:59:27.822Z,101128.00
2022-09-11T08:01:56.251Z,101125.22
2022-09-11T08:04:22.854Z,101160.31
2022-09-11T08:06:49.637Z,101154.53
2022-09-11T08:09:16.288Z,101168.31
2022-09-11T08:11:48.689Z,101163.69
2022-09-11T08:14:17.528Z,101165.31
2022-09-11T08:16:44.838Z,101170.69
2022-09-11T08:19:17.470Z,101179.66
2022-09-11T08:21:44.537Z,101182.72
2022-09-11T08:24:18.283Z,101166.88
2022-09-11T08:26:48.743Z,101170.41
2022-09-11T08:29:16.228Z,101180.16
2022-09-11T08:31:42.743Z,101189.44
2022-09-11T08:34:09.838Z,101202.59
2022-09-11T08:36:36.814Z,101210.34
2022-09-11T08:39:03.720Z,101205.97
2022-09-11T08:41:56.448Z,101208.66
2022-09-11T08:44:44.109Z,101211.50
2022-09-11T08:47:22.172Z,101216.22
2022-09-11T08:49:57.411Z,101209.06
2022-09-11T08:52:24.075Z,101180.84
2022-09-11T08:54:51.757Z,101169.16
2022-09-11T08:57:18.184Z,101212.06
2022-09-11T08:59:50.715Z,101202.13
2022-09-11T09:03:02.989Z,101213.28
2022-09-11T09:05:53.205Z,101199.78
2022-09-11T09:08:44.779Z,101225.34
2022-09-11T09:11:20.442Z,101231.88
2022-09-11T09:14:06.705Z,101232.69
2022-09-11T09:16:43.946Z,101227.47
2022-09-11T09:19:15.080Z,101230.41
2022-09-11T09:21:49.785Z,101222.19
2022-09-11T09:24:22.034Z,101225.53
2022-09-11T09:26:52.584Z,101240.88
2022-09-11T09:29:22.792Z,101232.06
2022-09-11T09:32:00.001Z,101235.09
2022-09-11T09:34:30.912Z,101236.13
2022-09-11T09:37:04.363Z,101211.50
2022-09-11T09:39:31.607Z,101238.41
2022-09-11T09:42:14.862Z,101242.59
2022-09-11T09:44:50.494Z,101249.25
2022-09-11T09:47:17.409Z,101241.13
2022-09-11T09:49:44.985Z,101247.88
2022-09-11T09:52:20.223Z,101240.53
2022-09-11T09:55:01.656Z,101236.97
2022-09-11T09:57:39.852Z,101258.34
2022-09-11T10:00:15.655Z,101243.47
2022-09-11T10:02:50.846Z,101236.44
2022-09-11T10:05:29.564Z,101244.16
2022-09-11T10:07:57.120Z,101249.16
2022-09-11T10:10:29.242Z,101256.03
2022-09-11T10:13:18.178Z,101246.44
2022-09-11T10:15:48.291Z,101252.97
2022-09-11T10:18:30.786Z,101255.50
2022-09-11T10:21:12.242Z,101248.91
2022-09-11T10:23:47.107Z,101239.66
2022-09-11T10:26:38.905Z,101256.38
2022-09-11T10:29:13.332Z,101248.72
2022-09-11T10:31:41.434Z,101247.09
2022-09-11T10:34:14.914Z,101249.09
2022-09-11T10:37:03.765Z,101222.78
2022-09-11T10:39:32.775Z,101247.59
2022-09-11T10:42:02.064Z,101249.97
2022-09-11T10:44:29.674Z,101256.16
2022-09-11T10:47:03.925Z,101246.50
2022-09-11T10:49:30.478Z,101255.13
2022-09-11T10:52:09.148Z,101258.22
2022-09-11T10:54:48.229Z,101253.09
2022-09-11T10:57:17.898Z,101263.22
2022-09-11T10:59:56.920Z,101263.00
2022-09-11T11:02:35.273Z,101265.31
2022-09-11T11:05:05.511Z,101273.06
2022-09-11T11:08:12.093Z,101265.09
2022-09-11T11:10:51.197Z,101270.13
2022-09-11T11:13:36.563Z,101268.63
2022-09-11T11:16:23.141Z,101271.16
2022-09-11T11:19:02.440Z,101266.41
2022-09-11T11:21:28.914Z,101265.19
2022-09-11T11:24:12.138Z,101260.31
2022-09-11T11:26:59.633Z,101260.75
2022-09-11T11:29:51.023Z,101270.38
2022-09-11T11:32:35.323Z,101269.72
2022-09-11T11:35:26.725Z,101264.81
2022-09-11T11:38:06.860Z,101240.09
2022-09-11T11:40:42.431Z,101241.16
2022-09-11T11:43:11.731Z,101254.66
2022-09-11T11:45:48.202Z,101260.16
2022-09-11T11:48:19.138Z,101270.63
2022-09-11T11:50:49.273Z,101242.63
2022-09-11T11:54:12.234Z,101273.25
2022-09-11T11:56:46.124Z,101268.53
2022-09-11T11:59:15.933Z,101270.25
2022-09-11T12:01:50.395Z,101255.28
2022-09-11T12:04:37.547Z,101264.78
2022-09-11T12:07:04.624Z,101267.81
2022-09-11T12:09:33.811Z,101243.69
2022-09-11T12:12:04.895Z,101271.63
2022-09-11T12:14:33.778Z,101257.34
2022-09-11T12:17:17.807Z,101275.53
2022-09-11T12:20:09.265Z,101273.72
2022-09-11T12:22:40.509Z,101275.34
2022-09-11T12:25:19.571Z,101269.31
2022-09-11T12:27:46.018Z,101263.19
2022-09-11T12:30:15.971Z,101258.72
2022-09-11T12:32:59.946Z,101258.66
2022-09-11T12:35:26.463Z,101265.69
2022-09-11T12:37:59.111Z,101269.94
2022-09-11T12:40:32.927Z,101270.34
2022-09-11T12:43:33.897Z,101271.63
2022-09-11T12:46:02.134Z,101266.38
2022-09-11T12:48:56.220Z,101275.03
2022-09-11T12:51:35.300Z,101264.28
2022-09-11T12:54:04.828Z,101233.44
2022-09-11T12:56:35.959Z,101261.34
2022-09-11T12:59:09.356Z,101262.31
2022-09-11T13:01:37.777Z,101232.94
2022-09-11T13:04:24.717Z,101222.34
2022-09-11T13:06:58.067Z,101238.72
2022-09-11T13:09:27.985Z,101239.91
2022-09-11T13:11:57.136Z,101246.47
2022-09-11T13:14:29.515Z,101244.88
2022-09-11T13:16:56.944Z,101241.09
2022-09-11T13:19:24.509Z,101218.56
2022-09-11T13:21:56.612Z,101199.38
2022-09-11T13:24:26.146Z,101217.88
2022-09-11T13:26:55.215Z,101218.78
2022-09-11T13:29:23.078Z,101199.75
2022-09-11T13:31:49.793Z,101212.00
2022-09-11T13:34:17.500Z,101205.69
2022-09-11T13:36:44.697Z,101218.22
2022-09-11T13:39:14.444Z,101197.97
2022-09-11T13:41:46.809Z,101197.69
2022-09-11T13:44:40.464Z,101186.06
2022-09-11T13:47:17.688Z,101192.84
2022-09-11T13:49:45.031Z,101170.09
2022-09-11T13:52:12.675Z,101163.50
2022-09-11T13:55:12.490Z,101187.34
2022-09-11T13:57:51.101Z,101186.56
2022-09-11T14:00:36.476Z,101190.47
2022-09-11T14:03:06.821Z,101186.50
2022-09-11T14:05:33.861Z,101184.34
2022-09-11T14:08:07.495Z,101164.34
2022-09-11T14:10:43.243Z,101174.41
2022-09-11T14:13:32.977Z,101174.69
2022-09-11T14:16:02.226Z,101176.94
2022-09-11T14:18:40.553Z,101172.75
2022-09-11T14:21:16.068Z,101169.63
2022-09-11T14:24:01.288Z,101156.13
2022-09-11T14:26:30.903Z,101160.19
2022-09-11T14:29:00.980Z,101163.22
2022-09-11T14:31:37.922Z,101160.56
2022-09-11T14:34:13.285Z,101146.63
2022-09-11T14:36:44.114Z,101164.53
2022-09-11T14:39:18.821Z,101158.06
2022-09-11T14:41:45.643Z,101158.31
2022-09-11T14:44:13.995Z,101156.66
2022-09-11T14:46:40.568Z,101146.41
2022-09-11T14:49:09.576Z,101123.56
2022-09-11T14:51:37.652Z,101149.38
2022-09-11T14:54:05.566Z,101096.63
2022-09-11T14:56:32.242Z,101141.13
2022-09-11T14:58:58.866Z,101143.69
2022-09-11T15:01:28.365Z,101128.84
2022-09-11T15:03:56.901Z,101139.53
2022-09-11T15:06:24.256Z,101134.53
2022-09-11T15:08:51.578Z,101132.69
2022-09-11T15:11:18.156Z,101106.66
2022-09-11T15:14:10.907Z,101132.50
2022-09-11T15:16:31.380Z,101132.97
2022-09-11T15:19:00.876Z,101125.75
2022-09-11T15:21:27.779Z,101124.56
2022-09-11T15:23:55.242Z,101119.63
2022-09-11T15:26:21.754Z,101123.03
2022-09-11T15:28:53.251Z,101123.69
2022-09-11T15:31:20.131Z,101118.94
2022-09-11T15:33:53.331Z,101116.44
2022-09-11T15:36:25.119Z,101076.22
2022-09-11T15:38:55.179Z,101109.47
2022-09-11T15:41:22.729Z,101108.00
2022-09-11T15:43:50.414Z,101106.91
2022-09-11T15:46:18.973Z,101099.34
2022-09-11T15:48:45.757Z,101086.94
2022-09-11T15:51:17.484Z,101095.47
2022-09-11T15:53:47.143Z,101090.38
2022-09-11T15:56:21.641Z,101089.56
2022-09-11T15:58:52.384Z,101083.00
2022-09-11T16:01:21.770Z,101064.38
2022-09-11T16:03:57.173Z,101077.81
2022-09-11T16:06:26.224Z,101082.03
2022-09-11T16:08:57.345Z,101075.84
2022-09-11T16:11:25.058Z,101065.31
2022-09-11T16:13:52.852Z,101079.44
2022-09-11T16:16:20.376Z,101074.44
2022-09-11T16:18:47.261Z,101077.38
2022-09-11T16:21:15.789Z,101053.41
2022-09-11T16:23:43.764Z,101079.72
2022-09-11T16:26:18.660Z,101077.28
2022-09-11T16:28:47.028Z,101082.47
2022-09-11T16:31:14.516Z,101076.22
2022-09-11T16:33:44.188Z,101084.91
2022-09-11T16:36:17.077Z,101077.19
2022-09-11T16:38:44.590Z,101076.06
2022-09-11T16:41:18.800Z,101069.84
2022-09-11T16:43:52.542Z,101084.88
2022-09-11T16:46:24.924Z,101085.94
2022-09-11T16:48:54.109Z,101074.69
2022-09-11T16:51:23.452Z,101094.25
2022-09-11T16:53:50.694Z,101085.59
2022-09-11T16:56:20.295Z,101073.47
2022-09-11T16:58:47.544Z,101061.91
2022-09-11T17:01:19.296Z,101082.81
2022-09-11T17:03:48.525Z,101082.16
2022-09-11T17:06:16.226Z,101052.97
2022-09-11T17:08:44.552Z,101079.75
2022-09-11T17:11:13.987Z,101078.59
2022-09-11T17:13:42.061Z,101075.56
2022-09-11T17:16:15.916Z,101074.22
2022-09-11T17:18:47.312Z,101060.03
2022-09-11T17:21:15.239Z,101063.09
2022-09-11T17:23:42.202Z,101056.38
2022-09-11T17:26:10.550Z,101077.09
2022-09-11T17:28:37.510Z,101060.28
2022-09-11T17:31:06.168Z,101073.56
2022-09-11T17:33:32.717Z,101070.84
2022-09-11T17:35:59.691Z,101059.81
2022-09-11T17:38:26.649Z,101061.63
2022-09-11T17:40:57.818Z,101049.72
2022-09-11T17:43:24.698Z,101047.31
2022-09-11T17:45:52.302Z,101069.13
2022-09-11T17:48:20.101Z,101067.38
2022-09-11T17:50:47.482Z,101065.31
2022-09-11T17:53:14.348Z,101077.88
2022-09-11T17:55:42.264Z,101076.53
2022-09-11T17:58:08.874Z,101079.25
2022-09-11T18:00:35.706Z,101075.03
2022-09-11T18:03:02.271Z,101074.00
2022-09-11T18:05:28.838Z,101084.25
2022-09-11T18:07:59.936Z,101078.56
2022-09-11T18:10:27.716Z,101092.03
2022-09-11T18:12:54.238Z,101092.75
2022-09-11T18:15:21.176Z,101059.03
2022-09-11T18:17:48.076Z,101085.13
2022-09-11T18:20:15.013Z,101074.34
2022-09-11T18:22:42.438Z,101096.00
2022-09-11T18:25:09.939Z,101072.47
2022-09-11T18:27:36.658Z,101090.69
2022-09-11T18:30:05.924Z,101071.13
2022-09-11T18:32:33.006Z,101083.41
2022-09-11T18:35:00.044Z,101094.47
2022-09-11T18:37:26.764Z,101096.31
2022-09-11T18:39:53.425Z,101073.41
2022-09-11T18:42:19.941Z,101057.44
2022-09-11T18:44:46.445Z,101082.19
2022-09-11T18:47:17.608Z,101101.44
2022-09-11T18:49:46.017Z,101092.69
2022-09-11T18:52:15.148Z,101059.34
2022-09-11T18:54:41.691Z,101090.66
2022-09-11T18:57:08.974Z,101081.91
2022-09-11T18:59:35.496Z,101085.63
2022-09-11T19:02:02.368Z,101088.31
2022-09-11T19:04:28.951Z,101062.03
2022-09-11T19:06:55.489Z,101078.53
2022-09-11T19:09:22.144Z,101094.53
2022-09-11T19:11:48.659Z,101096.69
2022-09-11T19:14:15.528Z,101063.03
2022-09-11T19:16:42.564Z,101089.59
2022-09-11T19:19:09.332Z,101059.16
2022-09-11T19:21:37.763Z,101081.72
2022-09-11T19:24:04.649Z,101085.44
2022-09-11T19:26:34.445Z,101084.22
2022-09-11T19:29:01.179Z,101079.69
2022-09-11T19:31:29.601Z,101062.38
2022-09-11T19:33:57.354Z,101083.50
2022-09-11T19:36:28.619Z,101073.09
2022-09-11T19:39:01.679Z,101081.53
2022-09-11T19:41:34.665Z,101073.97
2022-09-11T19:44:02.330Z,101051.41
2022-09-11T19:46:30.245Z,101083.38
2022-09-11T19:49:00.753Z,101069.38
2022-09-11T19:51:30.121Z,101085.72
2022-09-11T19:53:57.794Z,101093.13
2022-09-11T19:56:25.905Z,101075.13
2022-09-11T19:58:53.224Z,101076.66
2022-09-11T20:01:22.713Z,101091.66
2022-09-11T20:03:51.036Z,101092.28
2022-09-11T20:06:18.617Z,101093.47
2022-09-11T20:08:47.121Z,101093.41
2022-09-11T20:11:16.871Z,101101.69
2022-09-11T20:13:43.943Z,101087.88
2022-09-11T20:16:13.138Z,101098.28
2022-09-11T20:18:39.679Z,101081.97
2022-09-11T20:21:08.434Z,101102.16
2022-09-11T20:23:35.647Z,101103.63
2022-09-11T20:26:17.608Z,101089.44
2022-09-11T20:28:49.736Z,101108.66
2022-09-11T20:31:17.325Z,101104.75
2022-09-11T20:33:44.940Z,101109.78
2022-09-11T20:36:14.898Z,101086.03
2022-09-11T20:38:41.589Z,101110.44
2022-09-11T20:41:13.790Z,101072.75
2022-09-11T20:43:41.437Z,101106.50
2022-09-11T20:46:08.436Z,101071.44
2022-09-11T20:48:35.058Z,101095.13
2022-09-11T20:51:10.122Z,101091.78
2022-09-11T20:53:38.092Z,101097.50
2022-09-11T20:56:09.626Z,101094.72
2022-09-11T20:58:36.866Z,101074.50
2022-09-11T21:01:04.409Z,101097.63
2022-09-11T21:03:31.262Z,101075.41
2022-09-11T21:05:58.314Z,101058.63
2022-09-11T21:08:27.623Z,101065.19
2022-09-11T21:10:54.095Z,101092.09
2022-09-11T21:13:20.534Z,101087.69
2022-09-11T21:15:48.225Z,101080.31
2022-09-11T21:18:15.008Z,101080.69
2022-09-11T21:20:41.856Z,101046.19
2022-09-11T21:23:08.355Z,101078.81
2022-09-11T21:25:40.084Z,101079.66
2022-09-11T21:28:06.697Z,101077.66
2022-09-11T21:30:33.267Z,101074.66
2022-09-11T21:32:59.752Z,101042.94
2022-09-11T21:35:26.182Z,101063.13
2022-09-11T21:37:52.642Z,101079.00
2022-09-11T21:40:19.183Z,101059.88
2022-09-11T21:42:45.692Z,101065.75
2022-09-11T21:45:12.344Z,101037.84
2022-09-11T21:47:38.821Z,101014.34
2022-09-11T21:50:06.973Z,101051.47
2022-09-11T21:52:33.975Z,101034.22
2022-09-11T21:55:00.613Z,101038.25
2022-09-11T21:57:28.776Z,101028.03
2022-09-11T21:59:58.613Z,101043.31
2022-09-11T22:02:26.099Z,101067.81
2022-09-11T22:04:53.120Z,101075.59
2022-09-11T22:07:20.053Z,101059.84
2022-09-11T22:09:47.953Z,101027.59
2022-09-11T22:12:14.942Z,101060.25
2022-09-11T22:14:44.206Z,101052.09
2022-09-11T22:17:11.778Z,101027.38
2022-09-11T22:19:38.270Z,101025.13
2022-09-11T22:22:04.978Z,101032.03
2022-09-11T22:24:31.651Z,101063.38
2022-09-11T22:26:58.128Z,101029.91
2022-09-11T22:29:24.636Z,101055.31
2022-09-11T22:31:51.223Z,101055.69
2022-09-11T22:34:17.763Z,101057.34
2022-09-11T22:36:44.207Z,101022.03
2022-09-11T22:39:10.653Z,101057.59
2022-09-11T22:41:37.098Z,101044.78
2022-09-11T22:44:03.977Z,101009.81
2022-09-11T22:46:30.415Z,101056.50
2022-09-11T22:48:56.894Z,101053.88
2022-09-11T22:51:23.603Z,101049.75
2022-09-11T22:53:50.911Z,101026.75
2022-09-11T22:56:17.359Z,101007.00
2022-09-11T22:58:44.045Z,101017.00
2022-09-11T23:01:12.124Z,101033.31
2022-09-11T23:03:38.807Z,101050.66
2022-09-11T23:06:24.030Z,101029.22
2022-09-11T23:08:51.019Z,101044.16
2022-09-11T23:11:19.802Z,101024.47
2022-09-11T23:13:49.727Z,101047.38
2022-09-11T23:16:21.572Z,101046.13
2022-09-11T23:18:48.380Z,101007.28
2022-09-11T23:21:15.507Z,101036.09
2022-09-11T23:23:42.943Z,101026.97
2022-09-11T23:26:13.720Z,101042.75
2022-09-11T23:28:40.664Z,101047.81
2022-09-11T23:31:13.939Z,101045.75
2022-09-11T23:33:41.464Z,101040.94
2022-09-11T23:36:09.658Z,101018.09
2022-09-11T23:38:36.158Z,101035.34
2022-09-11T23:41:02.605Z,101038.88
2022-09-11T23:43:29.046Z,101037.63
2022-09-11T23:45:55.690Z,101014.91
2022-09-11T23:48:22.188Z,101004.47
2022-09-11T23:50:48.835Z,101029.97
2022-09-11T23:53:15.278Z,101011.06
2022-09-11T23:55:42.459Z,101016.44
2022-09-11T23:58:09.098Z,100987.88
